Main page
METAR-TAF:

METAR-TAF

Airports :

Munich, Germany

Munich Airport

latitude: 48-21N, longitude: 011-47E, elevation: 453 m

Current weather observation

The report was made 20 minutes ago, at 22:20 UTC
Calm wind
Temperature 9°C
Humidity 66%
Pressure 1019 hPa
Visibility 10 km or more
no clouds below 1500 m and no cumulonimbus

METAR: EDDM 262220Z 00000KT CAVOK 09/03 Q1019 NOSIG

Time: 00:40 (22:40 UTC)

Forecast

The report was made 5 hours and 40 minutes ago, at 17:00 UTC
Forecast valid from 26 at 18 UTC to 27 at 24 UTC
Wind 5 kt from the West
Visibility 10 km or more
Scattered clouds at a height of 4000 ft
Becoming
from 26 at 23 UTC to 27 at 01 UTC
Wind 3 kt from the East
Becoming
from 27 at 08 UTC to 27 at 10 UTC
Wind 10 kt from the East
Becoming
from 27 at 16 UTC to 27 at 18 UTC
Wind 3 kt from the Southeast
Becoming
from 27 at 21 UTC to 27 at 23 UTC
Wind 5 kt from the West

TAF: EDDM 261700Z 2618/2724 28005KT 9999 SCT040 BECMG 2623/2701 08003KT BECMG 2708/2710 09010KT BECMG 2716/2718 13003KT BECMG 2721/2723 27005KT

Weather observations and forecasts of more than 4000 airports (METAR and TAF reports).

The available stations are represented by yellow and red dots on the map.

Hover mouse over dot to see the name of the station.

Then click to see weather observations and forecasts.

To change the map : click on the green buttons with a black cross to zoom in, on the green button with a dash to zoom out, or on the green arrows for adjacent maps.


METAR-TAF: